createdAt,value
2022-11-26T00:00:59.064Z,24.33
2022-11-26T00:03:27.592Z,18.00
2022-11-26T00:05:58.417Z,18.50
2022-11-26T00:08:32.257Z,27.37
2022-11-26T00:11:02.552Z,26.20
2022-11-26T00:13:32.631Z,34.07
2022-11-26T00:16:00.997Z,16.17
2022-11-26T00:18:29.302Z,15.87
2022-11-26T00:21:02.403Z,16.00
2022-11-26T00:23:31.302Z,11.80
2022-11-26T00:26:03.782Z,9.50
2022-11-26T00:28:34.600Z,6.77
2022-11-26T00:31:05.563Z,7.33
2022-11-26T00:33:34.282Z,12.40
2022-11-26T00:36:08.160Z,7.43
2022-11-26T00:38:36.566Z,11.23
2022-11-26T00:41:07.768Z,7.73
2022-11-26T00:43:36.078Z,12.37
2022-11-26T00:46:04.413Z,8.10
2022-11-26T00:48:32.867Z,13.03
2022-11-26T00:51:01.142Z,17.27
2022-11-26T00:53:29.865Z,11.83
2022-11-26T00:55:58.211Z,6.90
2022-11-26T00:58:30.384Z,7.47
2022-11-26T01:01:00.967Z,6.60
2022-11-26T01:03:29.792Z,7.77
2022-11-26T01:06:00.184Z,7.17
2022-11-26T01:08:33.888Z,7.60
2022-11-26T01:11:06.478Z,7.20
2022-11-26T01:13:36.046Z,7.83
2022-11-26T01:16:21.889Z,7.80
2022-11-26T01:18:51.848Z,6.73
2022-11-26T01:21:21.056Z,7.10
2022-11-26T01:23:49.977Z,7.63
2022-11-26T01:26:21.768Z,8.00
2022-11-26T01:28:52.560Z,8.03
2022-11-26T01:31:24.727Z,8.00
2022-11-26T01:33:53.751Z,8.50
2022-11-26T01:36:28.110Z,8.50
2022-11-26T01:38:59.255Z,7.60
2022-11-26T01:41:44.797Z,7.20
2022-11-26T01:44:21.705Z,11.67
2022-11-26T01:46:51.850Z,8.37
2022-11-26T01:49:23.131Z,8.67
2022-11-26T01:52:02.362Z,8.50
2022-11-26T01:54:32.502Z,9.30
2022-11-26T01:57:10.213Z,8.40
2022-11-26T01:59:43.962Z,8.90
2022-11-26T02:02:13.026Z,8.70
2022-11-26T02:04:47.721Z,8.17
2022-11-26T02:07:16.797Z,8.23
2022-11-26T02:09:46.121Z,7.63
2022-11-26T02:12:15.738Z,8.17
2022-11-26T02:14:46.672Z,7.70
2022-11-26T02:17:23.752Z,8.60
2022-11-26T02:20:42.866Z,8.53
2022-11-26T02:23:56.001Z,8.80
2022-11-26T02:27:20.522Z,8.13
2022-11-26T02:30:10.161Z,8.93
2022-11-26T02:32:59.217Z,8.57
2022-11-26T02:35:36.502Z,8.97
2022-11-26T02:38:10.986Z,9.80
2022-11-26T02:40:39.751Z,9.70
2022-11-26T02:43:08.186Z,9.40
2022-11-26T02:45:41.350Z,9.00
2022-11-26T02:48:16.059Z,12.17
2022-11-26T02:50:48.965Z,10.37
2022-11-26T02:53:20.832Z,9.47
2022-11-26T02:55:55.502Z,10.63
2022-11-26T02:58:23.890Z,10.73
2022-11-26T03:00:56.356Z,12.77
2022-11-26T03:03:28.344Z,10.50
2022-11-26T03:06:02.642Z,10.70
2022-11-26T03:08:33.782Z,9.73
2022-11-26T03:11:02.640Z,10.60
2022-11-26T03:13:31.561Z,10.43
2022-11-26T03:16:01.448Z,10.27
2022-11-26T03:18:29.852Z,11.53
2022-11-26T03:20:58.254Z,10.03
2022-11-26T03:23:26.802Z,10.67
2022-11-26T03:25:55.362Z,10.73
2022-11-26T03:28:23.669Z,10.37
2022-11-26T03:30:52.806Z,10.03
2022-11-26T03:33:22.842Z,11.47
2022-11-26T03:35:51.871Z,11.37
2022-11-26T03:38:20.226Z,10.60
2022-11-26T03:40:58.012Z,12.10
2022-11-26T03:43:26.649Z,10.47
2022-11-26T03:45:55.157Z,11.70
2022-11-26T03:48:24.909Z,10.80
2022-11-26T03:50:53.189Z,11.37
2022-11-26T03:53:21.566Z,8.40
2022-11-26T03:55:52.407Z,10.50
2022-11-26T03:58:27.874Z,12.50
2022-11-26T04:00:56.530Z,12.00
2022-11-26T04:03:26.438Z,11.87
2022-11-26T04:05:54.816Z,10.73
2022-11-26T04:08:23.074Z,11.07
2022-11-26T04:10:51.311Z,10.60
2022-11-26T04:13:19.562Z,11.73
2022-11-26T04:15:49.111Z,10.67
2022-11-26T04:18:17.667Z,10.03
2022-11-26T04:20:51.551Z,10.20
2022-11-26T04:23:21.696Z,10.07
2022-11-26T04:25:50.014Z,9.97
2022-11-26T04:28:18.319Z,11.17
2022-11-26T04:30:46.518Z,10.67
2022-11-26T04:33:15.058Z,9.53
2022-11-26T04:35:43.951Z,9.47
2022-11-26T04:38:13.774Z,10.87
2022-11-26T04:40:42.125Z,10.43
2022-11-26T04:43:10.383Z,10.90
2022-11-26T04:45:38.667Z,9.80
2022-11-26T04:48:08.110Z,10.33
2022-11-26T04:50:36.553Z,10.50
2022-11-26T04:53:04.905Z,10.87
2022-11-26T04:55:34.562Z,10.97
2022-11-26T04:58:02.936Z,9.77
2022-11-26T05:00:31.306Z,9.63
2022-11-26T05:02:59.664Z,10.73
2022-11-26T05:05:28.184Z,9.43
2022-11-26T05:07:56.583Z,11.30
2022-11-26T05:10:24.930Z,11.90
2022-11-26T05:12:54.501Z,13.00
2022-11-26T05:15:22.913Z,12.23
2022-11-26T05:17:51.295Z,10.60
2022-11-26T05:20:19.861Z,10.03
2022-11-26T05:22:48.113Z,9.70
2022-11-26T05:25:16.373Z,8.87
2022-11-26T05:27:44.756Z,8.97
2022-11-26T05:30:16.034Z,9.20
2022-11-26T05:32:44.813Z,9.90
2022-11-26T05:35:13.325Z,9.10
2022-11-26T05:37:41.652Z,10.50
2022-11-26T05:40:12.047Z,8.97
2022-11-26T05:42:40.556Z,8.30
2022-11-26T05:45:11.094Z,8.50
2022-11-26T05:47:40.768Z,9.70
2022-11-26T05:50:10.826Z,8.80
2022-11-26T05:52:39.039Z,8.90
2022-11-26T05:55:09.482Z,8.20
2022-11-26T05:57:38.966Z,9.00
2022-11-26T06:00:10.528Z,8.30
2022-11-26T06:02:44.029Z,8.27
2022-11-26T06:05:12.506Z,7.73
2022-11-26T06:07:44.655Z,8.60
2022-11-26T06:10:14.352Z,8.90
2022-11-26T06:12:42.668Z,8.10
2022-11-26T06:15:11.843Z,8.53
2022-11-26T06:17:40.280Z,8.20
2022-11-26T06:20:11.517Z,9.00
2022-11-26T06:22:40.776Z,8.80
2022-11-26T06:25:11.583Z,8.17
2022-11-26T06:27:40.211Z,9.70
2022-11-26T06:30:12.043Z,8.40
2022-11-26T06:32:40.246Z,8.00
2022-11-26T06:35:11.210Z,7.07
2022-11-26T06:37:39.781Z,7.73
2022-11-26T06:40:10.168Z,7.33
2022-11-26T06:42:38.453Z,8.13
2022-11-26T06:45:07.733Z,9.03
2022-11-26T06:47:35.966Z,8.10
2022-11-26T06:50:10.456Z,7.60
2022-11-26T06:52:40.462Z,8.00
2022-11-26T06:55:10.079Z,7.07
2022-11-26T06:57:38.675Z,6.97
2022-11-26T07:00:09.030Z,7.60
2022-11-26T07:02:38.217Z,7.97
2022-11-26T07:05:06.670Z,7.27
2022-11-26T07:07:40.048Z,6.13
2022-11-26T07:10:09.631Z,7.50
2022-11-26T07:12:37.843Z,8.07
2022-11-26T07:15:07.284Z,6.80
2022-11-26T07:17:35.527Z,7.40
2022-11-26T07:20:03.936Z,7.77
2022-11-26T07:22:32.212Z,7.40
2022-11-26T07:25:01.824Z,7.80
2022-11-26T07:27:30.138Z,7.37
2022-11-26T07:29:58.435Z,6.47
2022-11-26T07:32:27.188Z,6.90
2022-11-26T07:34:55.634Z,7.90
2022-11-26T07:37:23.881Z,7.70
2022-11-26T07:39:52.216Z,8.07
2022-11-26T07:42:21.855Z,7.40
2022-11-26T07:44:50.766Z,8.43
2022-11-26T07:47:19.013Z,6.90
2022-11-26T07:49:47.380Z,8.23
2022-11-26T07:52:15.697Z,7.30
2022-11-26T07:54:44.485Z,7.90
2022-11-26T07:57:12.822Z,6.53
2022-11-26T07:59:42.447Z,7.63
2022-11-26T08:02:15.864Z,8.43
2022-11-26T08:04:44.224Z,7.50
2022-11-26T08:07:16.188Z,6.77
2022-11-26T08:09:50.245Z,6.37
2022-11-26T08:12:18.522Z,6.90
2022-11-26T08:14:48.134Z,7.60
2022-11-26T08:17:16.443Z,7.63
2022-11-26T08:19:44.762Z,7.23
2022-11-26T08:22:13.206Z,7.73
2022-11-26T08:24:41.637Z,7.37
2022-11-26T08:27:10.297Z,7.83
2022-11-26T08:29:38.817Z,6.90
2022-11-26T08:32:08.873Z,7.30
2022-11-26T08:34:37.522Z,7.90
2022-11-26T08:37:06.228Z,7.30
2022-11-26T08:39:34.550Z,8.13
2022-11-26T08:42:02.809Z,7.30
2022-11-26T08:44:31.109Z,7.07
2022-11-26T08:46:59.435Z,7.23
2022-11-26T08:49:29.192Z,7.43
2022-11-26T08:51:57.828Z,7.43
2022-11-26T08:54:26.256Z,6.60
2022-11-26T08:56:56.726Z,6.90
2022-11-26T08:59:25.341Z,6.50
2022-11-26T09:01:54.090Z,6.20
2022-11-26T09:04:22.499Z,7.00
2022-11-26T09:06:52.111Z,7.13
2022-11-26T09:09:20.492Z,6.73
2022-11-26T09:11:51.948Z,6.10
2022-11-26T09:14:22.947Z,6.83
2022-11-26T09:16:51.308Z,6.10
2022-11-26T09:19:20.315Z,5.20
2022-11-26T09:21:48.933Z,6.00
2022-11-26T09:24:19.260Z,6.07
2022-11-26T09:26:49.098Z,6.97
2022-11-26T09:29:20.900Z,6.67
2022-11-26T09:32:21.311Z,6.20
2022-11-26T09:34:39.371Z,7.00
2022-11-26T09:37:07.922Z,6.93
2022-11-26T09:39:37.730Z,6.10
2022-11-26T09:42:09.197Z,6.03
2022-11-26T09:44:59.517Z,6.80
2022-11-26T09:47:29.898Z,7.00
2022-11-26T09:50:07.699Z,6.70
2022-11-26T09:52:42.898Z,6.67
2022-11-26T09:55:19.557Z,6.70
2022-11-26T09:57:58.568Z,6.77
2022-11-26T10:00:30.478Z,6.10
2022-11-26T10:02:59.975Z,7.50
2022-11-26T10:05:44.443Z,6.50
2022-11-26T10:08:31.389Z,7.27
2022-11-26T10:11:09.494Z,6.00
2022-11-26T10:13:46.458Z,6.97
2022-11-26T10:16:27.970Z,6.93
2022-11-26T10:19:06.268Z,7.57
2022-11-26T10:21:58.278Z,8.07
2022-11-26T10:24:31.632Z,7.80
2022-11-26T10:27:11.087Z,6.10
2022-11-26T10:29:43.330Z,7.03
2022-11-26T10:32:17.364Z,7.10
2022-11-26T10:34:53.523Z,8.67
2022-11-26T10:37:24.717Z,6.00
2022-11-26T10:40:13.421Z,6.33
2022-11-26T10:42:45.792Z,6.43
2022-11-26T10:45:21.651Z,7.03
2022-11-26T10:47:50.231Z,7.20
2022-11-26T10:50:47.344Z,5.33
2022-11-26T10:53:23.134Z,6.87
2022-11-26T10:55:53.150Z,7.13
2022-11-26T10:58:25.610Z,5.87
2022-11-26T11:01:00.980Z,6.33
2022-11-26T11:06:41.790Z,6.77
2022-11-26T11:09:33.392Z,5.53
2022-11-26T11:12:23.631Z,5.93
2022-11-26T11:14:55.324Z,7.17
2022-11-26T11:17:32.664Z,7.10
2022-11-26T11:20:23.610Z,7.07
2022-11-26T11:23:01.479Z,6.77
2022-11-26T11:25:33.481Z,7.27
2022-11-26T11:28:11.965Z,6.90
2022-11-26T11:30:43.455Z,6.57
2022-11-26T11:33:20.728Z,5.50
2022-11-26T11:36:05.869Z,6.40
2022-11-26T11:38:47.494Z,7.40
2022-11-26T11:41:25.750Z,6.37
2022-11-26T11:44:06.534Z,5.97
2022-11-26T11:47:06.241Z,5.77
2022-11-26T11:49:56.377Z,5.47
2022-11-26T11:52:40.518Z,11.60
2022-11-26T11:55:22.682Z,10.17
2022-11-26T11:58:20.168Z,9.50
2022-11-26T12:00:54.315Z,8.03
2022-11-26T12:04:06.136Z,8.37
2022-11-26T12:06:50.614Z,5.77
2022-11-26T12:09:29.333Z,5.40
2022-11-26T12:12:01.130Z,7.00
2022-11-26T12:14:37.285Z,5.93
2022-11-26T12:17:15.794Z,6.17
2022-11-26T12:19:53.340Z,8.33
2022-11-26T12:22:27.893Z,6.87
2022-11-26T12:24:59.906Z,7.00
2022-11-26T12:27:37.264Z,13.00
2022-11-26T12:30:13.946Z,15.27
2022-11-26T12:32:50.452Z,8.73
2022-11-26T12:35:30.731Z,6.30
2022-11-26T12:38:03.013Z,5.30
2022-11-26T12:40:37.647Z,5.23
2022-11-26T12:43:13.773Z,4.20
2022-11-26T12:45:52.526Z,4.50
2022-11-26T12:48:37.097Z,5.53
2022-11-26T12:51:20.363Z,4.60
2022-11-26T12:53:57.023Z,4.40
2022-11-26T12:56:32.210Z,4.93
2022-11-26T12:59:08.862Z,4.77
2022-11-26T13:01:37.513Z,4.77
2022-11-26T13:04:36.064Z,5.00
2022-11-26T13:07:19.619Z,4.50
2022-11-26T13:10:00.507Z,4.70
2022-11-26T13:12:46.625Z,3.70
2022-11-26T13:15:23.923Z,4.53
2022-11-26T13:17:53.028Z,3.70
2022-11-26T13:20:40.979Z,4.87
2022-11-26T13:23:29.706Z,4.63
2022-11-26T13:26:14.713Z,5.70
2022-11-26T13:29:11.345Z,4.77
2022-11-26T13:32:01.496Z,5.43
2022-11-26T13:34:50.315Z,3.93
2022-11-26T13:37:47.894Z,4.50
2022-11-26T13:40:58.769Z,4.83
2022-11-26T13:44:49.396Z,5.07
2022-11-26T13:47:23.260Z,4.83
2022-11-26T13:49:58.512Z,4.10
2022-11-26T13:52:35.708Z,4.10
2022-11-26T13:55:13.115Z,5.33
2022-11-26T13:57:48.050Z,5.00
2022-11-26T14:00:28.693Z,7.20
2022-11-26T14:02:57.695Z,5.03
2022-11-26T14:06:08.508Z,5.03
2022-11-26T14:08:41.201Z,3.70
2022-11-26T14:11:10.151Z,3.77
2022-11-26T14:13:40.556Z,4.80
2022-11-26T14:16:10.479Z,3.10
2022-11-26T14:19:01.746Z,4.20
2022-11-26T14:21:31.687Z,5.50
2022-11-26T14:24:02.154Z,5.40
2022-11-26T14:26:37.345Z,5.00
2022-11-26T14:29:17.544Z,9.10
2022-11-26T14:31:52.156Z,11.50
2022-11-26T14:34:32.248Z,4.00
2022-11-26T14:37:02.412Z,4.33
2022-11-26T14:39:31.746Z,6.10
2022-11-26T14:42:05.647Z,11.83
2022-11-26T14:44:36.161Z,4.73
2022-11-26T14:47:15.784Z,7.13
2022-11-26T14:49:50.705Z,11.47
2022-11-26T14:52:23.121Z,5.67
2022-11-26T14:54:54.954Z,4.93
2022-11-26T14:57:27.495Z,3.40
2022-11-26T15:00:04.546Z,3.20
2022-11-26T15:02:33.335Z,3.27
2022-11-26T15:05:04.317Z,3.33
2022-11-26T15:07:33.311Z,2.93
2022-11-26T15:10:05.550Z,2.80
2022-11-26T15:12:36.415Z,3.47
2022-11-26T15:15:07.522Z,2.40
2022-11-26T15:17:36.147Z,2.50
2022-11-26T15:20:09.051Z,2.80
2022-11-26T15:22:42.497Z,2.67
2022-11-26T15:25:19.440Z,2.90
2022-11-26T15:27:56.263Z,2.43
2022-11-26T15:30:29.532Z,3.17
2022-11-26T15:33:01.087Z,2.30
2022-11-26T15:35:30.703Z,2.27
2022-11-26T15:37:59.164Z,3.13
2022-11-26T15:40:33.324Z,2.60
2022-11-26T15:43:05.129Z,2.90
2022-11-26T15:45:40.385Z,3.97
2022-11-26T15:48:27.795Z,2.63
2022-11-26T15:51:07.029Z,2.63
2022-11-26T15:53:38.410Z,3.07
2022-11-26T15:56:09.013Z,2.87
2022-11-26T15:58:40.849Z,2.80
2022-11-26T16:01:18.608Z,2.97
2022-11-26T16:03:50.381Z,3.00
2022-11-26T16:06:36.938Z,2.73
2022-11-26T16:09:27.982Z,2.70
2022-11-26T16:12:01.984Z,4.27
2022-11-26T16:14:34.755Z,3.40
2022-11-26T16:17:10.078Z,3.87
2022-11-26T16:19:49.748Z,3.47
2022-11-26T16:22:24.124Z,3.10
2022-11-26T16:25:04.568Z,4.17
2022-11-26T16:27:34.763Z,3.10
2022-11-26T16:30:07.900Z,3.03
2022-11-26T16:32:38.591Z,3.00
2022-11-26T16:35:29.856Z,3.00
2022-11-26T16:37:56.759Z,4.00
2022-11-26T16:40:25.949Z,4.10
2022-11-26T16:42:54.700Z,3.70
2022-11-26T16:45:23.079Z,3.60
2022-11-26T16:47:54.504Z,3.73
2022-11-26T16:50:26.085Z,3.10
2022-11-26T16:52:55.073Z,3.60
2022-11-26T16:55:27.179Z,3.50
2022-11-26T16:57:59.614Z,4.47
2022-11-26T17:00:28.541Z,3.33
2022-11-26T17:02:58.517Z,3.90
2022-11-26T17:05:26.821Z,3.17
2022-11-26T17:07:58.051Z,3.40
2022-11-26T17:10:29.162Z,3.10
2022-11-26T17:12:57.932Z,3.50
2022-11-26T17:15:26.399Z,3.47
2022-11-26T17:18:06.247Z,4.50
2022-11-26T17:20:34.607Z,4.00
2022-11-26T17:23:02.831Z,3.90
2022-11-26T17:25:31.148Z,3.57
2022-11-26T17:27:59.347Z,3.80
2022-11-26T17:30:27.658Z,4.53
2022-11-26T17:32:55.933Z,4.50
2022-11-26T17:35:25.521Z,4.83
2022-11-26T17:37:53.812Z,3.70
2022-11-26T17:40:24.318Z,4.20
2022-11-26T17:42:52.774Z,4.67
2022-11-26T17:45:21.617Z,4.37
2022-11-26T17:47:50.313Z,4.77
2022-11-26T17:50:23.057Z,4.40
2022-11-26T17:52:53.181Z,4.50
2022-11-26T17:55:22.550Z,5.40
2022-11-26T17:57:51.447Z,5.30
2022-11-26T18:00:23.384Z,5.00
2022-11-26T18:02:53.172Z,6.13
2022-11-26T18:05:21.634Z,5.60
2022-11-26T18:07:50.763Z,5.30
2022-11-26T18:10:23.523Z,5.00
2022-11-26T18:12:55.138Z,4.97
2022-11-26T18:15:25.814Z,5.80
2022-11-26T18:17:56.743Z,4.70
2022-11-26T18:20:28.777Z,6.20
2022-11-26T18:23:00.162Z,4.80
2022-11-26T18:25:30.779Z,5.83
2022-11-26T18:27:59.144Z,5.70
2022-11-26T18:30:30.462Z,5.20
2022-11-26T18:32:58.923Z,5.33
2022-11-26T18:35:27.194Z,5.10
2022-11-26T18:37:55.440Z,5.00
2022-11-26T18:40:23.747Z,5.73
2022-11-26T18:42:54.133Z,6.23
2022-11-26T18:45:22.458Z,5.83
2022-11-26T18:47:50.788Z,6.43
2022-11-26T18:50:19.628Z,5.67
2022-11-26T18:52:47.927Z,6.67
2022-11-26T18:55:16.483Z,6.10
2022-11-26T18:57:44.777Z,7.03
2022-11-26T19:00:16.370Z,7.00
2022-11-26T19:02:44.766Z,5.80
2022-11-26T19:05:13.265Z,7.17
2022-11-26T19:07:41.831Z,6.33
2022-11-26T19:10:12.287Z,6.57
2022-11-26T19:12:40.611Z,7.10
2022-11-26T19:15:09.615Z,6.50
2022-11-26T19:17:39.287Z,6.67
2022-11-26T19:20:09.328Z,5.90
2022-11-26T19:22:38.111Z,5.90
2022-11-26T19:25:07.335Z,6.37
2022-11-26T19:27:36.154Z,7.57
2022-11-26T19:30:05.259Z,6.07
2022-11-26T19:32:33.664Z,6.53
2022-11-26T19:35:06.097Z,5.27
2022-11-26T19:37:34.755Z,6.50
2022-11-26T19:40:03.150Z,5.93
2022-11-26T19:42:31.926Z,6.40
2022-11-26T19:45:00.196Z,6.07
2022-11-26T19:47:28.494Z,6.93
2022-11-26T19:49:56.881Z,6.10
2022-11-26T19:52:26.721Z,4.77
2022-11-26T19:54:55.128Z,4.90
2022-11-26T19:57:23.472Z,5.60
2022-11-26T19:59:52.663Z,5.03
2022-11-26T20:02:21.365Z,12.40
2022-11-26T20:04:49.886Z,6.67
2022-11-26T20:07:18.227Z,5.93
2022-11-26T20:09:47.951Z,5.83
2022-11-26T20:12:16.471Z,5.50
2022-11-26T20:14:44.787Z,6.10
2022-11-26T20:17:13.110Z,5.07
2022-11-26T20:19:41.753Z,5.67
2022-11-26T20:22:10.271Z,5.17
2022-11-26T20:24:38.600Z,4.60
2022-11-26T20:27:08.332Z,6.33
2022-11-26T20:29:36.731Z,5.27
2022-11-26T20:32:05.268Z,5.00
2022-11-26T20:34:33.831Z,4.70
2022-11-26T20:37:03.510Z,5.30
2022-11-26T20:39:31.870Z,6.03
2022-11-26T20:42:00.169Z,5.57
2022-11-26T20:44:29.964Z,6.97
2022-11-26T20:46:58.348Z,5.20
2022-11-26T20:49:30.813Z,5.50
2022-11-26T20:52:02.030Z,5.23
2022-11-26T20:54:31.455Z,5.27
2022-11-26T20:57:00.026Z,6.83
2022-11-26T20:59:29.823Z,4.60
2022-11-26T21:01:58.224Z,5.63
2022-11-26T21:04:26.549Z,4.73
2022-11-26T21:06:54.866Z,6.00
2022-11-26T21:09:23.252Z,4.93
2022-11-26T21:11:51.566Z,5.50
2022-11-26T21:14:19.881Z,5.17
2022-11-26T21:16:49.785Z,4.60
2022-11-26T21:19:18.070Z,6.10
2022-11-26T21:21:46.545Z,5.00
2022-11-26T21:24:14.877Z,4.90
2022-11-26T21:26:43.119Z,5.40
2022-11-26T21:29:11.430Z,4.97
2022-11-26T21:31:39.941Z,5.00
2022-11-26T21:34:09.696Z,5.87
2022-11-26T21:36:38.461Z,5.40
2022-11-26T21:39:07.115Z,6.27
2022-11-26T21:41:35.645Z,5.30
2022-11-26T21:44:04.362Z,4.80
2022-11-26T21:46:38.298Z,5.47
2022-11-26T21:49:09.188Z,5.80
2022-11-26T21:51:37.576Z,5.80
2022-11-26T21:54:06.311Z,5.50
2022-11-26T21:56:35.010Z,4.90
2022-11-26T21:59:04.029Z,4.30
2022-11-26T22:01:35.333Z,5.17
2022-11-26T22:04:07.246Z,4.53
2022-11-26T22:06:37.617Z,5.47
2022-11-26T22:09:06.860Z,6.20
2022-11-26T22:11:37.542Z,5.57
2022-11-26T22:14:07.204Z,5.90
2022-11-26T22:16:36.340Z,5.23
2022-11-26T22:19:06.347Z,5.13
2022-11-26T22:21:38.440Z,4.67
2022-11-26T22:24:08.735Z,4.50
2022-11-26T22:26:37.506Z,4.77
2022-11-26T22:29:06.242Z,4.47
2022-11-26T22:31:37.144Z,4.77
2022-11-26T22:34:09.305Z,4.87
2022-11-26T22:36:40.111Z,5.23
2022-11-26T22:39:13.486Z,4.57
2022-11-26T22:41:43.699Z,5.07
2022-11-26T22:44:13.032Z,4.60
2022-11-26T22:46:41.367Z,3.70
2022-11-26T22:49:13.571Z,5.10
2022-11-26T22:51:43.617Z,5.17
2022-11-26T22:54:14.908Z,4.10
2022-11-26T22:56:43.696Z,3.97
2022-11-26T22:59:15.260Z,4.43
2022-11-26T23:01:43.538Z,4.37
2022-11-26T23:04:12.248Z,5.10
2022-11-26T23:06:42.713Z,3.90
2022-11-26T23:09:13.434Z,4.43
2022-11-26T23:11:43.999Z,3.80
2022-11-26T23:14:12.890Z,4.50
2022-11-26T23:16:43.697Z,3.50
2022-11-26T23:19:15.395Z,4.40
2022-11-26T23:21:46.924Z,4.00
2022-11-26T23:24:16.456Z,3.80
2022-11-26T23:26:45.275Z,3.77
2022-11-26T23:29:14.512Z,4.00
2022-11-26T23:31:45.124Z,3.57
2022-11-26T23:34:14.089Z,3.80
2022-11-26T23:36:43.908Z,3.43
2022-11-26T23:39:14.341Z,3.83
2022-11-26T23:41:43.616Z,4.27
2022-11-26T23:44:12.082Z,4.20
2022-11-26T23:46:40.550Z,2.77
2022-11-26T23:49:08.915Z,3.70
2022-11-26T23:51:37.191Z,4.10
2022-11-26T23:54:06.970Z,4.03
2022-11-26T23:56:36.044Z,3.03
2022-11-26T23:59:06.132Z,3.80
